Orlando Sanford International Airport
KSFB : now visible

Airfield :











YOU CAN JOIN US ON...

 
LOGIN :

Register | Disclaimer

   EN    FR    IT 

 









Legend :    VFR   Marginal VFR   IFR   Intensive IFR   Very Intensive IFR
Visi :
Ceiling :
>= 8 km
>= 3000ft
5 to 8 km
1000 to 3000 ft
1500m to 5 km
500 to 1000 ft
800 to 1500m
200 to 500 ft
< 800m
< 200 ft
Symbols :   Thunderstorms  Fog  Heavy snow  Heavy precipitations  Wind > 20 kt






- Airport Elevation : 55 ft
- IATA code : SFB


KSFB - Orlando Sanford International

CURRENT METAR :
  • 010053Z 24017G25KT 10SM FEW037 FEW047 BKN100 27/19 A2970 RMK AO2 PK WND 23027/0005 SLP055 T02720189

EXPIRED METARs :
  • 312353Z 24015G24KT 10SM BKN095 28/18 A2970 RMK AO2 PK WND 27030/2258 SLP057 60000 T02780183 10328 20278 50000
  • 312253Z 25022G29KT 10SM FEW046 FEW055 SCT085 29/17 A2972 RMK AO2 PK WND 25033/2158 RAB21E41 SLP061 P0000 T02890172

TAF KSFB
Valid from the 01 at 00:00 until the 02 at 00:00 UTC


312345Z 0100/0124 25019G26KT P6SM FEW045 FEW060 SCT090
FM010100 25012G20KT P6SM VCSH SCT025 SCT060
TEMPO 0101/0104 5SM SHRA BKN025
FM010600 29011G18KT P6SM SCT020 BKN040
FM011400 33011KT P6SM SKC
FM012300 01006KT P6SM SKC



MET'MAP, your aeronautical weather chart ! - Copyright ORBIFLY December 2007 - Disclaimer

ORBIFLY MET'MAP TEAM :

Programming & Development : Alexandra Zaïnal
Concept & original design : Baudouin d'Aumeries
Assistance for programming : Marc-Olivier Méhu
Technical & hardware support : Manuel Goepfert

Contact : metmap@orbifly.com




SOURCES & CREDITS :

   NOAA       Earth
Advisory